• Join FlightAware (Why Join?)
  • Login
  • US Flag 
07:50PM EDT


 

Airport Tracker/Info


-or-


 

Live Flight TrackerFlight Track Log ✈ CTL312 ✈ 19-Apr-2013 ✈ KBKL - KMGY

Flight Track Log - Related Links

Times and Time Zones

All times are in EDT time to prevent confusion due to time zone crossing. See the CTL312 flight status page for this flight to view local times or setup timezone preferences in your user account.

Time Position Orientation Groundspeed Altitude Reporting Facility
EDT Latitude Longitude Course Direction KTS MPH feet Rate Location/Type
06:52PM 41.5167 -81.7036 321° Northwest 104 120 1,300  Level Cleveland Center
06:54PM 41.5478 -81.7372 321° Northwest 127 146 2,400 720 Climbing Cleveland Center
06:55PM 41.5556 -81.7875 282° West 131 151 3,100 660 Climbing Cleveland Center
06:56PM 41.5611 -81.8347 279° West 130 150 3,800 420 Climbing Cleveland Center
06:57PM 41.5336 -81.8758 228° Southwest 141 162 4,000 60 Climbing Cleveland Center
06:58PM 41.5042 -81.9139 224° Southwest 145 167 4,000  Level Cleveland Center
06:59PM 41.4786 -81.9467 224° Southwest 136 157 4,000  Level Cleveland Center
07:00PM 41.4489 -81.9850 224° Southwest 133 153 4,100  Climbing Cleveland Center
07:01PM 41.4194 -82.0203 222° Southwest 133 153 4,100 -60 Level Cleveland Center
07:02PM 41.3875 -82.0639 226° Southwest 131 151 4,000  Descending Cleveland Center
07:03PM 41.3642 -82.0992 229° Southwest 129 148 4,100  Climbing Cleveland Center
07:04PM 41.3386 -82.1372 228° Southwest 132 152 4,000 -180 Descending Cleveland Center
07:05PM 41.3089 -82.1697 219° Southwest 139 160 3,800 -300 Descending Cleveland Center
07:06PM 41.2814 -82.2078 226° Southwest 142 163 3,400 -60 Descending Cleveland Center
07:08PM 41.2430 -82.2484 219° Southwest  Level FlightAware Approximate
07:15PM 41.0395 -82.4718 224° Southwest  Level FlightAware Approximate
07:16PM 41.0122 -82.5062 223° Southwest  Level FlightAware Approximate
07:17PM 40.9848 -82.5406 223° Southwest  Level FlightAware Approximate
07:18PM 40.9574 -82.5749 223° Southwest  Level FlightAware Approximate
07:19PM 40.9300 -82.6092 223° Southwest  Level FlightAware Approximate
07:20PM 40.9026 -82.6435 223° Southwest  Level FlightAware Approximate
07:21PM 40.8752 -82.6778 223° Southwest  Level FlightAware Approximate
07:22PM 40.8477 -82.7120 223° Southwest  Level FlightAware Approximate
07:23PM 40.8203 -82.7462 223° Southwest  Level FlightAware Approximate
07:24PM 40.7928 -82.7804 223° Southwest  Level FlightAware Approximate
07:25PM 40.7654 -82.8145 223° Southwest  Level FlightAware Approximate
07:26PM 40.7379 -82.8486 223° Southwest  Level FlightAware Approximate
07:26PM 40.7625 -82.8581 223° Southwest 132 152 3,000  Level Indianapolis Center
07:27PM 40.7104 -82.8827 223° Southwest  Level FlightAware Approximate
07:27PM 40.7353 -82.8908 222° Southwest 132 152 3,100  Level Indianapolis Center
07:28PM 40.6829 -82.9168 223° Southwest  Level FlightAware Approximate
07:28PM 40.7086 -82.9233 223° Southwest 130 150 3,000  Level Indianapolis Center
07:29PM 40.6554 -82.9508 223° Southwest  Level FlightAware Approximate
07:29PM 40.6814 -82.9569 223° Southwest 133 153 3,000  Level Indianapolis Center
07:30PM 40.6279 -82.9848 223° Southwest  Level FlightAware Approximate
07:30PM 40.6525 -82.9917 222° Southwest 137 158 3,000  Level Indianapolis Center
07:31PM 40.6004 -83.0188 223° Southwest  Level FlightAware Approximate
07:31PM 40.6239 -83.0281 224° Southwest 139 160 3,100  Level Indianapolis Center
07:32PM 40.5936 -83.0661 224° Southwest 144 166 3,000 -60 Descending Indianapolis Center
07:33PM 40.5603 -83.1072 223° Southwest 143 165 3,000  Level Indianapolis Center
07:34PM 40.5331 -83.1414 224° Southwest 138 159 3,000  Level Indianapolis Center
07:35PM 40.5056 -83.1756 223° Southwest 136 157 3,100  Climbing Indianapolis Center
07:36PM 40.4781 -83.2092 223° Southwest 135 155 3,100  Level Indianapolis Center
07:37PM 40.4503 -83.2436 223° Southwest 135 155 3,100  Level Indianapolis Center
07:38PM 40.4211 -83.2792 223° Southwest 138 159 3,100  Level Indianapolis Center
07:39PM 40.3897 -83.3158 222° Southwest 144 166 3,100 -60 Level Indianapolis Center
07:40PM 40.3564 -83.3611 226° Southwest 144 166 3,000 -60 Descending Indianapolis Center
07:41PM 40.3269 -83.3958 222° Southwest 143 165 3,000  Level Indianapolis Center
07:42PM 40.2972 -83.4278 219° Southwest 140 161 3,000  Level Indianapolis Center
07:43PM 40.2675 -83.4625 222° Southwest 140 161 3,000  Level Indianapolis Center
07:44PM 40.2400 -83.4972 224° Southwest 135 155 3,000  Level Indianapolis Center
07:45PM 40.2106 -83.5292 220° Southwest 138 159 3,000  Level Indianapolis Center
07:46PM 40.1828 -83.5639 224° Southwest 138 159 3,000  Level Indianapolis Center
07:47PM 40.1533 -83.5958 220° Southwest 136 157 3,100  Climbing Indianapolis Center
07:48PM 40.1258 -83.6278 222° Southwest 133 153 3,100  Level Indianapolis Center
07:49PM 40.0958 -83.6625 222° Southwest 136 157 3,100  Level Indianapolis Center
07:51PM 40.0642 -83.6967 220° Southwest 135 155 3,100 -60 Level Indianapolis Center
07:52PM 40.0367 -83.7286 222° Southwest 138 159 3,000  Descending Indianapolis Center
07:53PM 40.0067 -83.7656 223° Southwest 141 162 3,100  Climbing Indianapolis Center
07:54PM 39.9753 -83.8000 220° Southwest 141 162 3,100  Level Indianapolis Center
07:54PM 39.9494 -83.8292 221° Southwest 145 167 3,100  Level Indianapolis Center
07:55PM 39.9194 -83.8661 223° Southwest 147 169 3,100  Level Indianapolis Center
07:56PM 39.9144 -83.8708 216° Southwest 145 167 3,100  Level Indianapolis Center
07:56PM 39.8872 -83.9028 222° Southwest 150 173 3,100  Level Indianapolis Center
07:57PM 39.8828 -83.9083 224° Southwest 148 170 3,100  Level Indianapolis Center
07:58PM 39.8572 -83.9397 223° Southwest 150 173 3,100  Level Indianapolis Center
07:58PM 39.8533 -83.9439 219° Southwest 148 170 3,100  Level Indianapolis Center
07:59PM 39.8294 -83.9742 224° Southwest 144 166 3,100  Level Indianapolis Center
07:59PM 39.8236 -83.9786 210° Southwest 144 166 3,100  Level Indianapolis Center
08:00PM 39.7978 -84.0053 218° Southwest 143 165 3,100  Level Indianapolis Center
08:00PM 39.7875 -84.0183 224° Southwest 144 166 3,100  Level Indianapolis Center
08:01PM 39.7656 -84.0419 220° Southwest 147 169 3,100  Level Indianapolis Center
08:01PM 39.7564 -84.0536 224° Southwest 146 168 3,100  Level Indianapolis Center